createdAt,value
2017-11-12T00:04:13.028Z,0.90
2017-11-12T00:09:15.610Z,0.90
2017-11-12T00:14:18.170Z,0.90
2017-11-12T00:19:20.720Z,1.10
2017-11-12T00:24:23.276Z,1.13
2017-11-12T00:29:26.601Z,1.63
2017-11-12T00:34:29.162Z,1.17
2017-11-12T00:39:31.719Z,1.50
2017-11-12T00:44:34.389Z,1.97
2017-11-12T00:49:37.760Z,2.00
2017-11-12T00:54:40.351Z,1.77
2017-11-12T00:59:42.904Z,1.70
2017-11-12T01:04:45.477Z,1.80
2017-11-12T01:09:48.020Z,2.07
2017-11-12T01:14:51.336Z,3.03
2017-11-12T01:19:53.894Z,4.43
2017-11-12T01:24:56.494Z,1.60
2017-11-12T01:29:59.042Z,2.00
2017-11-12T01:35:01.642Z,2.13
2017-11-12T01:40:04.181Z,2.63
2017-11-12T01:45:06.745Z,2.23
2017-11-12T01:50:09.313Z,1.93
2017-11-12T01:55:11.844Z,2.73
2017-11-12T02:00:14.462Z,4.73
2017-11-12T02:05:17.021Z,4.20
2017-11-12T02:10:19.583Z,2.47
2017-11-12T02:15:22.177Z,3.50
2017-11-12T02:20:24.755Z,4.80
2017-11-12T02:25:27.342Z,3.70
2017-11-12T02:30:30.738Z,5.90
2017-11-12T02:35:33.296Z,3.80
2017-11-12T02:40:35.864Z,3.93
2017-11-12T02:45:38.453Z,4.17
2017-11-12T02:50:41.007Z,4.10
2017-11-12T02:55:43.647Z,4.50
2017-11-12T03:00:46.187Z,6.30
2017-11-12T03:05:48.728Z,6.10
2017-11-12T03:10:51.326Z,4.47
2017-11-12T03:15:53.930Z,5.60
2017-11-12T03:20:56.497Z,6.93
2017-11-12T03:25:59.074Z,4.33
2017-11-12T03:31:01.630Z,5.63
2017-11-12T03:36:04.181Z,5.97
2017-11-12T03:41:06.770Z,6.97
2017-11-12T03:46:09.320Z,5.73
2017-11-12T03:51:11.874Z,8.90
2017-11-12T03:56:14.429Z,7.53
2017-11-12T04:06:25.909Z,6.73
2017-11-12T04:11:28.453Z,9.60
2017-11-12T04:16:30.997Z,7.30
2017-11-12T04:21:33.599Z,6.87
2017-11-12T04:26:36.276Z,6.40
2017-11-12T04:31:38.834Z,7.33
2017-11-12T04:36:41.379Z,6.90
2017-11-12T04:41:45.430Z,7.33
2017-11-12T04:46:48.010Z,9.50
2017-11-12T04:51:50.588Z,8.33
2017-11-12T04:56:53.146Z,11.17
2017-11-12T05:01:55.739Z,8.77
2017-11-12T05:06:58.301Z,9.67
2017-11-12T05:12:00.865Z,5.90
2017-11-12T05:17:03.430Z,10.63
2017-11-12T05:22:06.863Z,8.60
2017-11-12T05:27:09.427Z,7.50
2017-11-12T05:32:11.968Z,10.33
2017-11-12T05:37:14.554Z,6.53
2017-11-12T05:42:17.123Z,9.93
2017-11-12T05:47:19.681Z,16.60
2017-11-12T05:52:22.272Z,10.07
2017-11-12T05:57:24.825Z,8.60
2017-11-12T06:02:27.388Z,9.20
2017-11-12T06:07:30.032Z,8.23
2017-11-12T06:12:32.589Z,17.10
2017-11-12T06:17:35.132Z,10.57
2017-11-12T06:22:38.457Z,12.80
2017-11-12T06:27:41.014Z,11.53
2017-11-12T06:32:43.572Z,14.13
2017-11-12T06:37:46.155Z,10.27
2017-11-12T06:42:48.712Z,12.40
2017-11-12T06:47:51.278Z,18.80
2017-11-12T06:52:53.841Z,18.10
2017-11-12T06:57:56.404Z,13.90
2017-11-12T07:02:59.008Z,11.60
2017-11-12T07:08:01.586Z,11.57
2017-11-12T07:13:04.157Z,11.00
2017-11-12T07:18:06.717Z,14.20
2017-11-12T07:23:09.316Z,11.57
2017-11-12T07:28:11.873Z,13.93
2017-11-12T07:33:14.453Z,9.20
2017-11-12T07:38:17.793Z,11.83
2017-11-12T07:43:20.369Z,10.10
2017-11-12T07:48:22.936Z,8.57
2017-11-12T07:53:25.543Z,7.03
2017-11-12T07:58:28.107Z,8.37
2017-11-12T08:03:30.681Z,9.10
2017-11-12T08:08:33.252Z,5.00
2017-11-12T08:13:35.797Z,8.90
2017-11-12T08:18:38.341Z,3.47
2017-11-12T08:23:40.905Z,3.90
2017-11-12T08:28:43.453Z,10.50
2017-11-12T08:33:46.012Z,3.47
2017-11-12T08:38:48.657Z,5.00
2017-11-12T08:43:51.568Z,4.13
2017-11-12T08:48:54.145Z,3.57
2017-11-12T08:53:56.733Z,4.73
2017-11-12T08:58:59.341Z,2.73
2017-11-12T09:04:01.983Z,3.40
2017-11-12T09:09:05.324Z,2.80
2017-11-12T09:14:07.860Z,2.90
2017-11-12T09:19:10.525Z,2.67
2017-11-12T09:24:13.093Z,7.50
2017-11-12T09:29:15.652Z,9.63
2017-11-12T09:34:18.960Z,7.30
2017-11-12T09:39:21.560Z,3.47
2017-11-12T09:44:24.129Z,5.80
2017-11-12T09:49:26.676Z,7.17
2017-11-12T09:54:29.226Z,5.40
2017-11-12T09:59:31.778Z,4.17
2017-11-12T10:04:34.367Z,6.80
2017-11-12T10:09:36.961Z,4.77
2017-11-12T10:14:39.542Z,5.43
2017-11-12T10:19:42.114Z,11.37
2017-11-12T10:24:44.746Z,5.37
2017-11-12T10:29:47.347Z,6.43
2017-11-12T10:34:49.932Z,14.33
2017-11-12T10:39:52.521Z,6.03
2017-11-12T10:44:55.845Z,3.40
2017-11-12T10:49:58.429Z,4.57
2017-11-12T10:55:00.993Z,11.07
2017-11-12T11:00:03.574Z,6.03
2017-11-12T11:05:06.169Z,7.40
2017-11-12T11:10:08.762Z,6.83
2017-11-12T11:15:11.314Z,3.53
2017-11-12T11:20:13.937Z,3.77
2017-11-12T11:25:17.260Z,4.97
2017-11-12T11:30:19.815Z,4.03
2017-11-12T11:35:22.453Z,2.10
2017-11-12T11:40:25.085Z,6.33
2017-11-12T11:45:27.643Z,8.00
2017-11-12T11:50:30.212Z,5.93
2017-11-12T11:55:32.780Z,12.20
2017-11-12T12:00:35.375Z,5.23
2017-11-12T12:05:38.730Z,5.87
2017-11-12T12:10:41.293Z,6.23
2017-11-12T12:15:43.897Z,4.00
2017-11-12T12:20:46.470Z,2.60
2017-11-12T12:25:49.036Z,3.83
2017-11-12T12:30:51.612Z,5.50
2017-11-12T12:35:54.177Z,7.60
2017-11-12T12:40:56.755Z,4.00
2017-11-12T12:45:59.323Z,3.13
2017-11-12T12:51:01.888Z,3.20
2017-11-12T12:56:04.476Z,4.30
2017-11-12T13:01:07.048Z,5.23
2017-11-12T13:06:09.615Z,7.20
2017-11-12T13:11:12.190Z,5.20
2017-11-12T13:16:14.778Z,3.47
2017-11-12T13:21:17.377Z,4.27
2017-11-12T13:26:20.735Z,3.10
2017-11-12T13:31:23.290Z,2.13
2017-11-12T13:36:26.657Z,2.40
2017-11-12T13:41:29.273Z,2.33
2017-11-12T13:46:31.829Z,3.17
2017-11-12T13:51:34.394Z,6.57
2017-11-12T13:56:36.958Z,3.27
2017-11-12T14:06:48.408Z,7.47
2017-11-12T14:11:51.050Z,4.80
2017-11-12T14:16:53.638Z,5.90
2017-11-12T14:21:56.200Z,6.20
2017-11-12T14:26:58.777Z,6.13
2017-11-12T14:32:01.391Z,9.87
2017-11-12T14:37:03.985Z,7.30
2017-11-12T14:42:06.545Z,4.03
2017-11-12T14:47:09.122Z,7.93
2017-11-12T14:52:11.674Z,4.70
2017-11-12T14:57:14.225Z,6.73
2017-11-12T15:02:16.873Z,4.50
2017-11-12T15:07:19.446Z,5.07
2017-11-12T15:12:22.025Z,5.43
2017-11-12T15:17:24.595Z,4.83
2017-11-12T15:22:27.174Z,3.47
2017-11-12T15:27:29.774Z,5.67
2017-11-12T15:32:33.084Z,5.87
2017-11-12T15:37:35.630Z,7.47
2017-11-12T15:42:38.168Z,17.27
2017-11-12T15:47:46.656Z,4.87
2017-11-12T15:52:49.247Z,1.40
2017-11-12T15:57:51.885Z,1.87
2017-11-12T16:02:54.467Z,1.17
2017-11-12T16:07:57.085Z,4.50
2017-11-12T16:12:59.641Z,12.67
2017-11-12T16:18:02.211Z,1.10
2017-11-12T16:23:04.829Z,0.87
2017-11-12T16:28:07.551Z,2.67
2017-11-12T16:33:10.142Z,1.00
2017-11-12T16:38:12.730Z,0.60
2017-11-12T16:43:16.113Z,3.00
2017-11-12T16:48:18.747Z,0.90
2017-11-12T16:53:21.389Z,0.80
2017-11-12T16:58:24.100Z,0.80
2017-11-12T17:03:26.720Z,1.10
2017-11-12T17:08:29.304Z,0.60
2017-11-12T17:13:31.916Z,0.80
2017-11-12T17:18:34.591Z,1.20
2017-11-12T17:23:37.189Z,0.77
2017-11-12T17:28:39.866Z,0.80
2017-11-12T17:33:42.519Z,1.00
2017-11-12T17:38:45.180Z,0.90
2017-11-12T17:43:47.826Z,1.00
2017-11-12T17:48:50.477Z,1.00
2017-11-12T17:53:53.102Z,1.20
2017-11-12T17:58:55.785Z,1.43
2017-11-12T18:03:58.422Z,1.20
2017-11-12T18:09:00.997Z,1.10
2017-11-12T18:14:03.761Z,1.17
2017-11-12T18:19:07.149Z,1.00
2017-11-12T18:24:09.769Z,1.20
2017-11-12T18:29:13.135Z,1.20
2017-11-12T18:34:15.729Z,1.70
2017-11-12T18:39:18.421Z,1.87
2017-11-12T18:44:21.101Z,1.73
2017-11-12T18:49:23.699Z,1.03
2017-11-12T18:54:27.825Z,1.20
2017-11-12T18:59:33.390Z,1.10
2017-11-12T19:10:08.069Z,1.02
2017-11-12T19:15:10.704Z,0.60
2017-11-12T19:20:15.979Z,0.80
2017-11-12T19:25:18.567Z,0.90
2017-11-12T19:30:21.198Z,1.33
2017-11-12T19:35:23.774Z,1.13
2017-11-12T19:40:26.392Z,1.17
2017-11-12T19:45:29.006Z,0.90
2017-11-12T19:50:31.632Z,1.30
2017-11-12T19:55:34.222Z,2.20
2017-11-12T20:00:36.862Z,1.10
2017-11-12T20:05:39.491Z,1.67
2017-11-12T20:10:42.091Z,1.00
2017-11-12T20:15:44.661Z,1.10
2017-11-12T20:20:47.243Z,1.23
2017-11-12T20:25:49.863Z,0.90
2017-11-12T20:30:52.800Z,1.13
2017-11-12T20:35:55.405Z,1.00
2017-11-12T20:40:58.019Z,1.40
2017-11-12T20:46:00.926Z,1.10
2017-11-12T20:56:10.883Z,2.50
2017-11-12T21:01:14.694Z,1.00
2017-11-12T21:06:17.260Z,1.70
2017-11-12T21:11:19.851Z,1.40
2017-11-12T21:16:23.241Z,1.43
2017-11-12T21:21:29.352Z,1.70
2017-11-12T21:26:32.750Z,2.20
2017-11-12T21:31:35.898Z,1.73
2017-11-12T21:46:50.025Z,1.97
2017-11-12T21:51:53.020Z,1.87
2017-11-12T21:56:55.582Z,2.60
2017-11-12T22:01:58.150Z,2.73
2017-11-12T22:07:00.743Z,2.90
2017-11-12T22:12:03.333Z,2.77
2017-11-12T22:17:05.936Z,1.97
2017-11-12T22:22:08.511Z,2.93
2017-11-12T22:27:11.085Z,10.90
2017-11-12T22:32:13.633Z,3.83
2017-11-12T22:37:16.213Z,4.20
2017-11-12T22:42:18.773Z,4.00
2017-11-12T22:47:21.300Z,3.93
2017-11-12T22:52:24.637Z,6.37
2017-11-12T22:57:27.188Z,4.17
2017-11-12T23:02:29.757Z,5.03
2017-11-12T23:07:32.296Z,5.77
2017-11-12T23:12:34.872Z,5.67
2017-11-12T23:17:37.462Z,5.67
2017-11-12T23:22:40.072Z,6.47
2017-11-12T23:27:42.645Z,5.33
2017-11-12T23:32:46.000Z,7.37
2017-11-12T23:37:48.570Z,5.90
2017-11-12T23:42:51.122Z,6.00
2017-11-12T23:47:53.681Z,6.53
2017-11-12T23:52:56.233Z,8.13
2017-11-12T23:57:58.786Z,9.97
